Ana Sayfa
METAR-TAF:

METAR-TAF

Havaalanları :

Phoenix Goodyear Airport

Goodyear, Arizona, Amerika Birleşik Devletleri

Enlem: 33-25N, Boylam: 112-23W, yükseklik: 295 m

Güncel hava durumu gözlemi

Rapor saat 17:47 UTC de 14 dakika önce yapıldı.
Rüzgar doğudan 5 kt
Sıcaklık 34°C
Nem 30%
Basınç 1016 hPa
Görüş mesafesi: 16.1 km
12000 ft yükseklikte az bulutlu
15000 ft yükseklikte parçalı bulutlu
20000 ft yükseklikte parçalı çok bulutlu

METAR: KGYR 221747Z 10005KT 10SM FEW120 SCT150 BKN200 34/14 A2999

Saat: 11:01 (18:01 UTC)


TAF: eksik

4.000'den fazla havaalanı için hava durumu gözlemleri ve tahminleri (METAR ve TAF raporları).

Kullanılabilir istasyonlar harita üzerinde sarı ve kırmızı noktalarla gösterilir.

İstasyonun adını görmek için fareyi noktanın üzerinde gezdirin.

Sonrasında hava gözlem ve tahminlerini görmek için tıklayın.

Haritayı değiştirmek için: yaklaştırmak için siyah artı işaretli yeşil düğmeye ve uzaklaştırmak için de eksi işaretli düğmeye hızla tıklayın; bitişik haritalar için yeşil okları kullanın.


METAR-TAF: